CheckWX is a tool to help pilots better visualize weather data.  It is not intended as a substitute for an official pre-flight weather briefing.

15:13:36 UTC

KBTA METAR
Blair Municipal Airport
Blair, Nebraska, USA
Current

19 mins ago

KBTA 261455Z AUTO 09009KT 10SM CLR 20/13 A3009 RMK AO2 T01990132
Observed
May-26 @ 14:55 UTC
Wind
  • 090° at 9 KTS
Visibility
10 SM
Flight Rules
VFR
Cloud Levels
  • Clear skies
Temperature
20°C / 68°F
Dewpoint
13°C / 55°F
Humidity
64%
Altimeter
30.09" Hg
Pressure
1018.92 hPa
Previous

39 mins ago

KBTA 261435Z AUTO 08010KT 10SM CLR 20/13 A3009 RMK AO2 T01950129
Observed
May-26 @ 14:35 UTC
Wind
  • 080° at 10 KTS
Visibility
10 SM
Flight Rules
VFR
Cloud Levels
  • Clear skies
Temperature
20°C / 68°F
Dewpoint
13°C / 55°F
Humidity
64%
Altimeter
30.09" Hg
Pressure
1018.92 hPa
Previous

59 mins ago

KBTA 261415Z AUTO 08011G15KT 10SM CLR 19/12 A3009 RMK AO2 LTG DSNT W T01870124
Observed
May-26 @ 14:15 UTC
Wind
  • 080° at 11 KTS
  • Gusting to 15 KTS
Visibility
10 SM
Flight Rules
VFR
Cloud Levels
  • Clear skies
Temperature
19°C / 66°F
Dewpoint
12°C / 54°F
Humidity
64%
Altimeter
30.09" Hg
Pressure
1018.92 hPa